Time;durP1;ratioP1;P1;durP2;ratioP2;P2;SDS_P1;SDS_P2;PMS_P1;PMS_P2;Temp;Humidity;BMP_temperature;BMP_pressure;BME280_temperature;BME280_humidity;BME280_pressure;Samples;Min_cycle;Max_cycle;Signal;HPM_P1;HPM_P2
2023/03/09 00:00:27;;;;;;;33.57;21.27;;;;;;;5.74;74.78;98008.22;4993667;28;101973;-81
2023/03/09 00:02:53;;;;;;;32.53;20.90;;;;;;;5.71;74.68;98004.00;5026927;27;97141;-82
2023/03/09 00:05:20;;;;;;;32.87;20.13;;;;;;;5.79;74.67;98011.41;5010239;28;97226;-81
2023/03/09 00:07:46;;;;;;;34.20;21.73;;;;;;;5.81;74.60;98018.22;5008768;27;101263;-83
2023/03/09 00:10:13;;;;;;;31.43;20.60;;;;;;;5.83;74.77;98013.78;5025682;27;101417;-80
2023/03/09 00:12:38;;;;;;;32.80;21.00;;;;;;;5.82;74.71;98006.91;4993563;28;97205;-82
2023/03/09 00:15:05;;;;;;;29.53;20.73;;;;;;;5.84;74.54;98014.63;5027053;27;97135;-81
2023/03/09 00:17:30;;;;;;;29.27;20.80;;;;;;;5.83;74.65;98013.78;5009949;28;101486;-81
2023/03/09 00:20:16;;;;;;;32.80;20.83;;;;;;;5.80;74.80;98018.31;5024693;28;101781;-81
2023/03/09 00:22:41;;;;;;;30.73;20.57;;;;;;;5.81;75.11;98022.59;5012796;28;97375;-81
2023/03/09 00:25:07;;;;;;;36.10;21.97;;;;;;;5.80;74.84;98018.31;5002393;28;98124;-81
2023/03/09 00:27:33;;;;;;;31.53;21.27;;;;;;;5.81;74.90;98023.44;5008624;28;101199;-82
2023/03/09 00:29:59;;;;;;;30.97;21.90;;;;;;;5.66;75.21;97988.59;5009120;28;101578;-81
2023/03/09 00:32:25;;;;;;;31.83;21.00;;;;;;;5.75;75.11;98005.53;5010386;28;97468;-80
2023/03/09 00:34:50;;;;;;;30.87;22.43;;;;;;;5.79;74.92;98003.59;5026316;27;97147;-80
2023/03/09 00:37:16;;;;;;;35.13;22.97;;;;;;;5.78;75.06;98012.34;5026471;28;97388;-80
2023/03/09 00:39:41;;;;;;;33.67;22.63;;;;;;;5.64;75.47;98007.81;5027477;28;98265;-80
2023/03/09 00:42:07;;;;;;;33.80;22.40;;;;;;;5.74;74.94;98016.03;5027700;27;97207;-81
2023/03/09 00:44:32;;;;;;;32.53;22.00;;;;;;;5.74;74.93;98006.44;5001977;28;98216;-81
2023/03/09 00:46:58;;;;;;;34.23;22.93;;;;;;;5.75;74.60;97999.47;5007417;28;101815;-80
2023/03/09 00:49:24;;;;;;;32.70;21.60;;;;;;;5.75;75.01;98010.72;5025893;28;101820;-82
2023/03/09 00:51:50;;;;;;;36.47;23.37;;;;;;;5.76;74.76;97993.34;5009873;27;97389;-82
2023/03/09 00:54:15;;;;;;;32.83;21.67;;;;;;;5.64;75.20;97993.06;5013943;28;96926;-79
2023/03/09 00:56:42;;;;;;;30.43;21.67;;;;;;;5.65;74.91;97986.09;5012389;28;101558;-80
2023/03/09 00:59:07;;;;;;;30.30;21.47;;;;;;;5.75;75.42;98007.28;5027732;27;101444;-81
2023/03/09 01:01:33;;;;;;;35.17;23.27;;;;;;;5.75;74.63;97986.47;5007907;28;98611;-82
2023/03/09 01:03:59;;;;;;;36.57;22.67;;;;;;;5.74;75.42;97982.19;5013293;28;97124;-80
2023/03/09 01:06:25;;;;;;;33.40;21.97;;;;;;;5.83;74.98;97990.34;5012262;28;100013;-80
2023/03/09 01:08:52;;;;;;;37.17;24.00;;;;;;;5.79;74.98;97980.16;5012573;28;101348;-82
2023/03/09 01:11:17;;;;;;;32.93;23.23;;;;;;;5.87;74.74;97980.59;4996050;28;97351;-81
2023/03/09 01:13:44;;;;;;;35.63;23.77;;;;;;;5.82;75.22;97972.22;5030495;28;97294;-81
2023/03/09 01:16:09;;;;;;;29.90;22.00;;;;;;;5.78;74.83;97968.91;5026288;27;98242;-83
2023/03/09 01:18:37;;;;;;;32.10;22.43;;;;;;;5.76;74.73;97970.78;5024110;27;97382;-80
2023/03/09 01:21:02;;;;;;;33.77;23.00;;;;;;;5.74;75.41;97958.75;5028908;28;96830;-81
2023/03/09 01:23:28;;;;;;;33.77;23.70;;;;;;;5.74;75.25;97943.13;5013054;28;97487;-81
2023/03/09 01:25:54;;;;;;;34.03;22.33;;;;;;;5.77;74.77;97941.22;5028282;27;101834;-80
2023/03/09 01:28:20;;;;;;;35.83;23.50;;;;;;;5.74;75.05;97938.75;4993300;28;101290;-81
2023/03/09 01:30:45;;;;;;;32.73;23.70;;;;;;;5.76;75.26;97943.88;5012818;28;97141;-81
2023/03/09 01:33:11;;;;;;;32.60;22.17;;;;;;;5.74;75.11;97943.97;5009406;28;97409;-81
2023/03/09 01:35:38;;;;;;;33.43;21.93;;;;;;;5.70;75.06;97945.03;5029066;27;101692;-80
2023/03/09 01:38:04;;;;;;;35.30;23.00;;;;;;;5.70;75.44;97933.78;5042141;27;101939;-80
2023/03/09 01:40:30;;;;;;;31.47;21.97;;;;;;;5.67;74.78;97921.78;5009360;28;97283;-82
2023/03/09 01:43:16;;;;;;;30.70;21.63;;;;;;;5.78;75.49;97935.06;4999206;28;97852;-80
2023/03/09 01:45:42;;;;;;;34.90;21.67;;;;;;;5.81;74.99;97939.28;5027973;28;101458;-80
2023/03/09 01:48:07;;;;;;;32.20;22.13;;;;;;;5.79;75.32;97943.72;5045908;27;98029;-80
2023/03/09 01:50:34;;;;;;;37.03;24.67;;;;;;;5.83;74.77;97940.88;5006262;28;98040;-80
2023/03/09 01:53:12;;;;;;;33.77;22.30;;;;;;;5.76;75.30;97928.25;5029107;28;97507;-82
2023/03/09 01:55:42;;;;;;;32.37;23.27;;;;;;;5.69;75.20;97927.75;4994283;28;101105;-80
2023/03/09 01:58:15;;;;;;;34.00;22.60;;;;;;;5.66;75.28;97927.91;5011622;28;101613;-80
2023/03/09 02:00:44;;;;;;;35.10;23.03;;;;;;;5.64;75.34;97930.59;5028546;28;97133;-80
2023/03/09 02:03:34;;;;;;;35.20;23.50;;;;;;;5.72;75.13;97932.78;5028964;27;97339;-80
2023/03/09 02:06:11;;;;;;;35.37;23.50;;;;;;;5.66;75.54;97928.75;5020155;28;100839;-81
2023/03/09 02:08:40;;;;;;;37.47;24.10;;;;;;;5.66;75.47;97917.50;5021325;27;102862;-80
2023/03/09 02:11:08;;;;;;;38.00;25.33;;;;;;;5.67;75.72;97932.19;5027895;28;97110;-81
2023/03/09 02:13:46;;;;;;;38.60;24.73;;;;;;;5.65;75.31;97927.06;5012459;28;98100;-81
2023/03/09 02:16:13;;;;;;;39.27;26.13;;;;;;;5.67;75.21;97927.84;5027914;27;100306;-79
2023/03/09 02:18:39;;;;;;;37.00;25.97;;;;;;;5.61;74.71;97933.38;5027261;27;102010;-79
2023/03/09 02:21:08;;;;;;;38.73;26.27;;;;;;;5.32;75.05;97888.00;5011877;28;97540;-80
2023/03/09 02:23:33;;;;;;;36.93;25.40;;;;;;;5.53;75.16;97925.09;5030813;28;97294;-80
2023/03/09 02:26:21;;;;;;;38.83;26.07;;;;;;;5.48;75.43;97928.88;5004806;28;101353;-81
2023/03/09 02:28:47;;;;;;;37.83;27.07;;;;;;;5.37;75.64;97912.03;5009486;27;101659;-81
2023/03/09 02:31:14;;;;;;;37.73;26.13;;;;;;;5.46;75.54;97921.13;5020303;27;97032;-81
2023/03/09 02:33:40;;;;;;;37.27;25.87;;;;;;;5.45;75.42;97935.91;5013013;28;96810;-80
2023/03/09 02:36:06;;;;;;;35.60;25.17;;;;;;;5.47;75.64;97935.84;5027563;27;101425;-80
2023/03/09 02:38:37;;;;;;;37.40;25.67;;;;;;;5.28;75.29;97894.28;5012421;28;101529;-80
2023/03/09 02:41:06;;;;;;;36.53;25.87;;;;;;;5.51;75.42;97928.72;5005127;28;97384;-82
2023/03/09 02:43:36;;;;;;;34.87;24.77;;;;;;;5.50;75.23;97927.00;5015061;27;97288;-80
2023/03/09 02:46:02;;;;;;;35.87;25.23;;;;;;;5.56;75.02;97932.75;5011453;27;101224;-81
2023/03/09 02:48:29;;;;;;;37.70;26.50;;;;;;;5.59;75.29;97935.19;4998531;28;100016;-81
2023/03/09 02:50:55;;;;;;;39.77;26.57;;;;;;;5.62;75.20;97929.00;5026042;27;97114;-82
2023/03/09 02:53:21;;;;;;;37.07;26.40;;;;;;;5.61;74.83;97928.16;5028313;27;96812;-81
2023/03/09 02:55:47;;;;;;;35.70;25.17;;;;;;;5.54;74.77;97905.13;5044510;27;101768;-81
2023/03/09 02:58:13;;;;;;;38.10;26.93;;;;;;;5.53;75.02;97906.88;5004384;28;101205;-80
2023/03/09 03:00:39;;;;;;;37.40;26.13;;;;;;;5.61;74.98;97922.97;5010753;28;97426;-79
2023/03/09 03:03:04;;;;;;;37.63;25.37;;;;;;;5.56;74.83;97916.31;5028174;28;97559;-80
2023/03/09 03:05:30;;;;;;;35.73;25.03;;;;;;;5.51;75.14;97915.69;5039220;27;100876;-81
2023/03/09 03:07:57;;;;;;;36.60;25.67;;;;;;;5.59;74.95;97922.19;5016629;28;100035;-81
2023/03/09 03:10:22;;;;;;;33.90;25.47;;;;;;;5.58;75.13;97928.28;5027232;27;97372;-82
2023/03/09 03:12:48;;;;;;;39.30;25.67;;;;;;;5.59;74.90;97926.56;5008308;28;97067;-80
2023/03/09 03:15:14;;;;;;;33.10;23.03;;;;;;;5.51;74.71;97918.28;5002556;28;101971;-84
2023/03/09 03:17:40;;;;;;;37.03;24.93;;;;;;;5.32;74.81;97900.16;5024991;27;101620;-80
2023/03/09 03:20:14;;;;;;;33.57;24.40;;;;;;;5.25;75.05;97899.66;5010717;28;97558;-80
2023/03/09 03:22:41;;;;;;;37.30;25.77;;;;;;;5.30;74.93;97905.47;5021660;27;97148;-79
2023/03/09 03:25:08;;;;;;;38.03;26.37;;;;;;;5.38;75.02;97915.47;5027166;27;100364;-81
2023/03/09 03:27:38;;;;;;;37.13;25.40;;;;;;;5.43;74.73;97923.88;5027416;27;100986;-80
2023/03/09 03:30:05;;;;;;;41.93;26.40;;;;;;;5.36;75.10;97912.13;5011133;28;97124;-80
2023/03/09 03:32:32;;;;;;;35.70;25.33;;;;;;;5.38;74.94;97916.34;4996033;28;97607;-80
2023/03/09 03:34:58;;;;;;;41.77;26.83;;;;;;;5.37;74.89;97916.41;5026377;27;101271;-80
2023/03/09 03:37:25;;;;;;;38.47;25.13;;;;;;;5.39;75.18;97928.41;5010050;28;99122;-80
2023/03/09 03:39:50;;;;;;;37.03;25.70;;;;;;;5.37;74.52;97916.41;5007222;28;97040;-80
2023/03/09 03:42:16;;;;;;;39.90;26.93;;;;;;;5.35;74.88;97919.09;5042279;27;97447;-82
2023/03/09 03:44:42;;;;;;;39.90;27.70;;;;;;;5.36;75.24;97925.97;5010695;28;101589;-80
2023/03/09 03:47:09;;;;;;;39.43;27.03;;;;;;;5.41;75.32;97921.38;5009020;28;101508;-80
2023/03/09 03:49:36;;;;;;;43.47;27.40;;;;;;;5.38;75.42;97921.53;5027974;27;96776;-80
2023/03/09 03:52:04;;;;;;;40.70;26.10;;;;;;;5.16;74.68;97885.34;5018599;27;97478;-81
2023/03/09 03:54:30;;;;;;;41.33;27.83;;;;;;;5.37;74.95;97924.19;5026954;28;98655;-81
2023/03/09 03:56:57;;;;;;;41.73;29.13;;;;;;;5.34;74.81;97926.97;5026999;27;101893;-83
2023/03/09 03:59:23;;;;;;;44.07;29.67;;;;;;;5.37;75.08;97927.63;5028003;28;96827;-80
2023/03/09 04:01:49;;;;;;;43.30;29.50;;;;;;;5.44;75.07;97922.97;5025845;27;97453;-80
2023/03/09 04:04:15;;;;;;;45.77;31.70;;;;;;;5.30;74.89;97921.06;5009665;28;100617;-80
2023/03/09 04:06:55;;;;;;;45.80;29.53;;;;;;;5.30;75.34;97923.69;5004760;27;101725;-80
2023/03/09 04:09:23;;;;;;;48.07;31.57;;;;;;;5.21;75.27;97918.94;5026717;27;97029;-81
2023/03/09 04:11:49;;;;;;;46.40;32.23;;;;;;;5.09;75.58;97917.81;5026946;27;97542;-80
2023/03/09 04:14:16;;;;;;;39.10;28.47;;;;;;;5.19;75.87;97918.16;5010003;28;101736;-80
2023/03/09 04:16:41;;;;;;;48.50;32.27;;;;;;;5.03;75.83;97905.06;5010069;27;101469;-80
2023/03/09 04:19:08;;;;;;;42.83;30.13;;;;;;;5.19;75.54;97902.56;5010461;28;97140;-81
2023/03/09 04:21:36;;;;;;;42.10;29.10;;;;;;;4.98;75.09;97857.69;5019349;27;97454;-82
2023/03/09 04:24:02;;;;;;;43.27;28.70;;;;;;;5.17;74.98;97876.63;5018538;27;98529;-82
2023/03/09 04:26:27;;;;;;;41.80;27.30;;;;;;;5.08;75.90;97889.25;5022155;28;101448;-80
2023/03/09 04:29:07;;;;;;;41.47;28.03;;;;;;;4.96;76.34;97883.75;5007740;28;97881;-80
2023/03/09 04:31:33;;;;;;;42.80;27.63;;;;;;;5.03;75.97;97875.63;5009340;28;97185;-81
2023/03/09 04:34:00;;;;;;;43.37;27.27;;;;;;;5.13;75.91;97890.72;5010358;28;101550;-83
2023/03/09 04:36:26;;;;;;;43.00;28.67;;;;;;;5.12;75.46;97899.44;5016932;27;102115;-81
2023/03/09 04:38:53;;;;;;;42.30;27.33;;;;;;;5.13;75.78;97882.91;5029898;27;96979;-81
2023/03/09 04:41:19;;;;;;;45.57;28.67;;;;;;;5.20;75.21;97888.63;5002946;28;97282;-81
2023/03/09 04:43:50;;;;;;;44.33;28.73;;;;;;;5.17;75.43;97884.41;5029858;27;99754;-80
2023/03/09 04:46:17;;;;;;;46.87;29.77;;;;;;;5.13;75.30;97880.31;5012553;28;101203;-80
2023/03/09 04:48:43;;;;;;;48.40;30.17;;;;;;;5.09;75.90;97881.41;5030519;28;97579;-80
2023/03/09 04:51:09;;;;;;;42.20;28.17;;;;;;;5.05;75.80;97869.44;5029765;28;97002;-80
2023/03/09 04:53:35;;;;;;;45.20;29.33;;;;;;;5.12;75.40;97878.63;5013464;28;101510;-80
2023/03/09 04:56:01;;;;;;;44.27;28.93;;;;;;;5.19;75.64;97876.56;4992465;28;101154;-82
2023/03/09 04:58:28;;;;;;;43.23;27.60;;;;;;;5.17;75.79;97870.59;5010676;28;97068;-80
2023/03/09 05:00:54;;;;;;;44.80;29.13;;;;;;;4.92;75.53;97835.44;5030161;28;97087;-81
2023/03/09 05:03:21;;;;;;;45.47;28.57;;;;;;;5.11;75.55;97860.50;5012412;28;101450;-80
2023/03/09 05:05:51;;;;;;;46.67;29.50;;;;;;;5.13;75.21;97862.09;5013097;28;100683;-80
2023/03/09 05:08:17;;;;;;;44.57;29.37;;;;;;;5.03;75.31;97867.84;5013150;28;97432;-81
2023/03/09 05:10:43;;;;;;;47.33;29.07;;;;;;;5.08;75.83;97871.06;5013651;28;96916;-80
2023/03/09 05:13:09;;;;;;;45.47;30.27;;;;;;;5.02;75.71;97872.19;5008632;28;101511;-81
2023/03/09 05:15:38;;;;;;;47.43;29.73;;;;;;;5.05;75.77;97863.41;5037306;27;101845;-79
2023/03/09 05:18:04;;;;;;;44.67;29.00;;;;;;;5.06;75.95;97863.34;5023686;27;97330;-80
2023/03/09 05:20:31;;;;;;;46.27;28.70;;;;;;;5.09;75.89;97862.31;4996058;28;96906;-80
2023/03/09 05:23:04;;;;;;;49.37;29.70;;;;;;;5.12;75.61;97875.16;5013567;28;101066;-81
2023/03/09 05:25:30;;;;;;;42.37;27.80;;;;;;;5.06;76.21;97865.94;4994752;28;101316;-81
2023/03/09 05:27:56;;;;;;;49.47;29.93;;;;;;;4.94;76.27;97848.34;5013248;28;96921;-79
2023/03/09 05:30:24;;;;;;;43.80;28.43;;;;;;;4.98;76.17;97860.28;5005261;28;97191;-81
2023/03/09 05:32:50;;;;;;;41.83;26.90;;;;;;;4.91;75.95;97844.13;5029528;28;101493;-80
2023/03/09 05:35:18;;;;;;;43.53;27.27;;;;;;;5.00;76.08;97861.03;5011939;27;101461;-80
2023/03/09 05:37:45;;;;;;;38.60;25.80;;;;;;;4.98;75.73;97873.28;5029697;27;98395;-80
2023/03/09 05:40:18;;;;;;;44.80;27.40;;;;;;;4.98;76.08;97866.31;4992176;28;97526;-80
2023/03/09 05:42:46;;;;;;;43.97;25.70;;;;;;;4.94;75.91;97858.75;4994237;28;101311;-81
2023/03/09 05:45:11;;;;;;;41.63;26.17;;;;;;;4.96;76.05;97851.72;5006513;28;101635;-81
2023/03/09 05:47:39;;;;;;;40.00;24.97;;;;;;;4.97;76.07;97859.44;5045212;27;96929;-81
2023/03/09 05:50:05;;;;;;;40.70;24.87;;;;;;;4.89;76.26;97845.16;5028705;28;97152;-80
2023/03/09 05:52:30;;;;;;;38.10;25.13;;;;;;;5.01;75.78;97865.34;5012911;28;97895;-81
2023/03/09 05:54:56;;;;;;;38.23;23.83;;;;;;;4.88;75.55;97838.25;5029160;28;98285;-79
2023/03/09 05:57:22;;;;;;;39.20;23.33;;;;;;;4.74;75.84;97819.00;5010357;28;97160;-87
2023/03/09 05:59:50;;;;;;;33.97;23.10;;;;;;;5.03;75.56;97875.63;5028136;27;96894;-85
2023/03/09 06:02:16;;;;;;;36.53;23.97;;;;;;;4.98;75.76;97855.09;5027272;28;98325;-88
2023/03/09 06:04:43;;;;;;;41.77;24.13;;;;;;;4.97;75.60;97853.38;5008462;28;100683;-85
2023/03/09 06:07:10;;;;;;;34.33;22.53;;;;;;;5.02;75.44;97863.56;5011637;28;97276;-82
2023/03/09 06:09:41;;;;;;;38.47;23.07;;;;;;;4.99;75.26;97865.41;5005623;28;96881;-84
2023/03/09 06:12:12;;;;;;;33.25;22.23;;;;;;;5.02;75.21;97861.81;5008420;28;99782;-84
2023/03/09 06:14:39;;;;;;;32.57;22.07;;;;;;;5.06;75.28;97860.75;5000222;28;100921;-85
2023/03/09 06:17:06;;;;;;;38.17;23.40;;;;;;;5.10;75.36;97861.44;5012678;28;97178;-84
2023/03/09 06:19:33;;;;;;;34.27;22.33;;;;;;;5.05;75.13;97856.44;5027052;27;96855;-84
2023/03/09 06:21:58;;;;;;;30.30;20.90;;;;;;;5.02;75.28;97854.00;5008422;28;102088;-84
2023/03/09 06:24:24;;;;;;;34.53;22.47;;;;;;;5.06;75.23;97873.75;5011656;28;101726;-85
2023/03/09 06:26:51;;;;;;;29.27;19.53;;;;;;;5.04;75.10;97872.13;5007111;28;97274;-84
2023/03/09 06:29:27;;;;;;;30.70;20.13;;;;;;;4.98;75.22;97868.91;5009139;27;97145;-85
2023/03/09 06:31:53;;;;;;;28.37;18.60;;;;;;;4.93;75.10;97862.28;4987954;28;101788;-85
2023/03/09 06:34:18;;;;;;;25.97;17.93;;;;;;;4.84;74.76;97860.97;5010218;28;101048;-85
2023/03/09 06:36:44;;;;;;;27.80;18.00;;;;;;;4.90;74.61;97873.66;5010504;28;98102;-85
2023/03/09 06:39:11;;;;;;;24.23;16.57;;;;;;;4.77;74.53;97859.59;5010286;27;96958;-86
2023/03/09 06:41:39;;;;;;;26.63;16.70;;;;;;;4.74;74.54;97875.31;5024955;27;101217;-85
2023/03/09 06:44:20;;;;;;;25.08;16.02;;;;;;;4.73;75.53;97879.69;5011277;28;101389;-84
2023/03/09 06:46:46;;;;;;;25.57;16.97;;;;;;;4.74;74.76;97873.59;5025090;27;96965;-84
2023/03/09 06:49:13;;;;;;;23.83;16.73;;;;;;;4.83;75.13;97880.09;5029008;27;97387;-85
2023/03/09 06:51:40;;;;;;;25.53;16.60;;;;;;;4.75;74.69;97877.84;4995340;28;101115;-85
2023/03/09 06:54:06;;;;;;;25.00;17.10;;;;;;;4.65;74.61;97865.38;5021929;27;101252;-84
2023/03/09 06:56:37;;;;;;;23.30;16.07;;;;;;;4.61;74.59;97859.50;5011524;28;96952;-85
2023/03/09 06:59:02;;;;;;;22.13;14.73;;;;;;;4.52;74.67;97881.56;5011199;28;97043;-84
2023/03/09 07:01:28;;;;;;;22.30;15.40;;;;;;;4.64;74.50;97884.50;5011226;28;101500;-85
2023/03/09 07:03:58;;;;;;;23.77;15.67;;;;;;;4.54;74.42;97869.38;5028678;27;101613;-85
2023/03/09 07:06:23;;;;;;;22.17;14.83;;;;;;;4.50;74.78;97856.59;5028046;28;97093;-85
2023/03/09 07:08:49;;;;;;;25.83;15.37;;;;;;;4.52;75.10;97870.34;5012194;28;97201;-84
2023/03/09 07:11:14;;;;;;;22.13;14.97;;;;;;;4.59;75.21;97876.91;5008264;28;97926;-77
2023/03/09 07:13:40;;;;;;;23.93;16.60;;;;;;;4.59;74.80;97865.69;5010978;28;101742;-83
2023/03/09 07:16:06;;;;;;;22.70;15.07;;;;;;;4.58;74.61;97864.00;5006602;28;97113;-83
2023/03/09 07:18:32;;;;;;;21.37;15.17;;;;;;;4.49;74.54;97860.94;5010943;28;97211;-86
2023/03/09 07:20:59;;;;;;;23.37;14.60;;;;;;;4.57;74.28;97880.50;5024048;28;100952;-82
2023/03/09 07:23:25;;;;;;;26.17;15.63;;;;;;;4.57;74.50;97883.09;5022776;27;97867;-82
2023/03/09 07:25:50;;;;;;;23.53;14.80;;;;;;;4.46;73.82;97887.06;5010270;28;97263;-82
2023/03/09 07:28:16;;;;;;;21.83;14.63;;;;;;;4.39;74.48;97887.44;5008406;28;96991;-82
2023/03/09 07:30:41;;;;;;;20.13;13.77;;;;;;;4.41;75.01;97893.41;5002892;28;101522;-82
2023/03/09 07:33:08;;;;;;;20.57;14.37;;;;;;;4.38;74.66;97889.19;5016186;28;97825;-83
2023/03/09 07:35:38;;;;;;;23.37;14.10;;;;;;;4.27;74.74;97876.69;5037468;27;97248;-83
2023/03/09 07:38:03;;;;;;;20.83;13.23;;;;;;;4.31;74.48;97873.06;5026675;28;97125;-82
2023/03/09 07:40:29;;;;;;;21.63;13.43;;;;;;;4.37;74.65;97884.91;5010944;28;97749;-83
2023/03/09 07:42:54;;;;;;;20.10;14.03;;;;;;;4.38;74.39;97891.78;5010386;28;101717;-84
2023/03/09 07:45:28;;;;;;;18.00;12.90;;;;;;;4.35;74.53;97880.72;5015745;28;97725;-88
2023/03/09 07:47:53;;;;;;;23.40;14.13;;;;;;;4.50;75.04;97885.16;5023442;28;97772;-84
2023/03/09 07:50:19;;;;;;;20.10;13.30;;;;;;;4.50;74.90;97880.81;5003840;28;101257;-85
2023/03/09 07:52:45;;;;;;;23.50;13.40;;;;;;;4.57;75.04;97889.16;4992264;28;101031;-86
2023/03/09 07:55:12;;;;;;;18.40;12.03;;;;;;;4.49;74.09;97880.88;5011070;28;97144;-87
2023/03/09 07:57:38;;;;;;;15.47;10.63;;;;;;;4.56;74.38;97886.63;5011350;28;96761;-86
2023/03/09 08:00:11;;;;;;;18.83;12.37;;;;;;;4.58;74.07;97890.00;5019730;28;101758;-84
2023/03/09 08:02:41;;;;;;;18.93;11.87;;;;;;;4.63;74.32;97891.47;5009156;28;102019;-85
2023/03/09 08:05:08;;;;;;;16.67;12.10;;;;;;;4.70;74.72;97899.78;5003916;28;96960;-83
2023/03/09 08:07:34;;;;;;;15.50;11.50;;;;;;;4.64;74.01;97890.53;5027486;27;97446;-86
2023/03/09 08:10:00;;;;;;;15.70;10.20;;;;;;;4.54;73.62;97891.91;5009995;28;101324;-84
2023/03/09 08:12:25;;;;;;;14.00;10.30;;;;;;;4.43;73.55;97897.63;5027329;28;98065;-85
2023/03/09 08:14:51;;;;;;;13.27;9.67;;;;;;;4.35;73.54;97901.47;5010727;28;96851;-85
2023/03/09 08:17:16;;;;;;;12.93;8.70;;;;;;;4.29;74.02;97906.03;4993302;28;96913;-84
2023/03/09 08:19:42;;;;;;;10.90;8.37;;;;;;;4.31;73.73;97899.03;5026750;28;97425;-85
2023/03/09 08:22:08;;;;;;;11.80;8.83;;;;;;;4.32;73.88;97920.66;5020897;28;97961;-81
2023/03/09 08:24:34;;;;;;;12.67;8.97;;;;;;;4.34;74.59;97912.81;5010066;28;97444;-81
2023/03/09 08:26:59;;;;;;;13.27;8.80;;;;;;;4.32;74.71;97920.66;4993692;28;97633;-82
2023/03/09 08:29:25;;;;;;;12.53;8.93;;;;;;;4.26;74.48;97903.59;5025701;28;97764;-82
2023/03/09 08:31:51;;;;;;;11.00;8.60;;;;;;;4.42;74.68;97932.31;5003420;28;101137;-89
2023/03/09 08:34:18;;;;;;;11.37;8.37;;;;;;;4.47;74.42;97939.88;5026435;28;97989;-87
2023/03/09 08:36:44;;;;;;;14.07;8.87;;;;;;;4.50;74.27;97944.91;5030233;27;97495;-85
2023/03/09 08:39:10;;;;;;;12.40;8.50;;;;;;;4.53;74.16;97958.59;5028768;27;101679;-85
2023/03/09 08:41:35;;;;;;;10.07;7.50;;;;;;;4.51;73.78;97957.84;5022677;28;99789;-85
2023/03/09 08:44:01;;;;;;;10.23;7.53;;;;;;;4.56;73.67;97973.19;5009389;28;96774;-91
2023/03/09 08:46:26;;;;;;;9.50;6.97;;;;;;;4.33;73.44;97924.91;5026783;28;97229;-92
2023/03/09 08:48:52;;;;;;;8.57;6.73;;;;;;;4.53;73.48;97969.00;5032462;27;98327;-84
2023/03/09 08:51:18;;;;;;;8.73;6.87;;;;;;;4.50;73.58;97963.94;5006744;28;101051;-78
2023/03/09 08:53:43;;;;;;;7.67;6.00;;;;;;;4.56;73.57;97968.00;5025486;27;97204;-80
2023/03/09 08:56:10;;;;;;;9.50;7.07;;;;;;;4.52;73.78;97966.47;5019427;27;98328;-81
2023/03/09 08:58:36;;;;;;;8.40;5.83;;;;;;;4.55;73.70;97974.13;5004519;28;101685;-77
2023/03/09 09:01:04;;;;;;;9.73;7.17;;;;;;;4.52;74.18;97950.91;5015275;28;100952;-78
2023/03/09 09:03:30;;;;;;;8.43;6.90;;;;;;;4.65;73.54;97979.72;5007126;28;98675;-76
2023/03/09 09:05:56;;;;;;;8.27;6.47;;;;;;;4.65;73.60;97984.94;5009865;28;98048;-75
2023/03/09 09:08:22;;;;;;;9.67;7.33;;;;;;;4.72;73.29;97989.78;5011791;27;98424;-75
2023/03/09 09:10:48;;;;;;;9.00;6.63;;;;;;;4.73;74.00;97983.66;5006352;28;97937;-75
2023/03/09 09:13:13;;;;;;;13.30;9.20;;;;;;;4.88;73.54;97999.44;5025263;28;97361;-75
2023/03/09 09:15:41;;;;;;;10.67;7.90;;;;;;;4.92;73.49;97999.22;5009484;27;97337;-76
2023/03/09 09:18:06;;;;;;;11.20;8.27;;;;;;;4.92;73.08;98007.03;5003304;28;102227;-75
2023/03/09 09:20:33;;;;;;;9.17;7.20;;;;;;;4.93;73.31;98016.50;5023896;28;98017;-75
2023/03/09 09:22:58;;;;;;;7.70;6.60;;;;;;;5.01;73.49;98026.53;5027744;28;97176;-76
2023/03/09 09:25:24;;;;;;;8.87;7.27;;;;;;;5.04;73.50;98023.78;5009789;27;97434;-76
2023/03/09 09:27:50;;;;;;;10.87;7.03;;;;;;;5.05;72.95;98041.06;5026843;27;100868;-75
2023/03/09 09:30:17;;;;;;;8.43;6.90;;;;;;;5.11;73.47;98022.56;5027651;28;97309;-76
2023/03/09 09:32:44;;;;;;;9.07;6.63;;;;;;;5.10;72.84;98031.31;5021932;27;97076;-75
2023/03/09 09:35:11;;;;;;;10.03;7.73;;;;;;;5.09;73.16;98041.75;5007382;28;98121;-75
2023/03/09 09:37:37;;;;;;;8.43;6.60;;;;;;;5.08;72.53;98040.09;5028064;27;101104;-75
2023/03/09 09:40:04;;;;;;;9.30;7.33;;;;;;;4.98;73.27;98052.69;5021430;28;97797;-75
2023/03/09 09:42:35;;;;;;;9.30;6.53;;;;;;;5.05;73.43;98053.25;4999319;28;97283;-76
2023/03/09 09:45:03;;;;;;;10.27;7.20;;;;;;;5.02;73.10;98050.78;5022167;28;97035;-76
2023/03/09 09:47:30;;;;;;;8.10;6.93;;;;;;;5.05;73.45;98056.69;5023633;27;98208;-75
2023/03/09 09:49:58;;;;;;;7.60;6.30;;;;;;;5.00;72.81;98048.25;5042531;27;101366;-76
2023/03/09 09:52:42;;;;;;;9.27;7.60;;;;;;;5.01;73.10;98072.50;4999453;28;97351;-75
2023/03/09 09:55:08;;;;;;;9.60;6.60;;;;;;;5.05;73.84;98084.44;5018161;27;98155;-77
2023/03/09 09:57:39;;;;;;;8.53;7.17;;;;;;;5.15;73.52;98090.91;5040846;27;102065;-76
2023/03/09 10:00:15;;;;;;;9.82;7.60;;;;;;;5.06;73.00;98109.53;5020556;28;101204;-76
2023/03/09 10:03:10;;;;;;;8.07;6.87;;;;;;;5.04;72.92;98106.19;4988620;28;97579;-77
2023/03/09 10:05:55;;;;;;;9.30;6.83;;;;;;;5.08;72.23;98113.75;5004511;28;97468;-76
2023/03/09 10:08:44;;;;;;;8.93;6.90;;;;;;;5.16;72.97;98129.84;5022380;28;98525;-76
2023/03/09 10:11:16;;;;;;;10.13;7.37;;;;;;;5.23;72.73;98125.19;4999405;28;101097;-78
2023/03/09 10:13:46;;;;;;;9.18;6.38;;;;;;;5.16;73.28;98140.25;5017231;27;97502;-75
2023/03/09 10:16:22;;;;;;;9.67;8.03;;;;;;;5.26;73.77;98138.03;5026627;27;97267;-76
2023/03/09 10:18:53;;;;;;;9.67;8.07;;;;;;;5.26;73.51;98163.22;5009914;28;100563;-75
2023/03/09 10:21:23;;;;;;;11.03;8.50;;;;;;;5.20;73.20;98172.97;5015975;28;99804;-75
2023/03/09 10:23:49;;;;;;;13.80;9.90;;;;;;;5.25;73.58;98166.75;5020902;28;96856;-76
2023/03/09 10:26:39;;;;;;;14.63;8.03;;;;;;;5.29;73.08;98176.06;5005231;28;98007;-75
2023/03/09 10:29:19;;;;;;;8.93;7.00;;;;;;;5.31;72.74;98177.69;5008618;28;101490;-75
2023/03/09 10:31:56;;;;;;;8.80;7.17;;;;;;;5.39;72.72;98192.97;5025102;27;97426;-75
2023/03/09 10:34:24;;;;;;;9.93;6.77;;;;;;;5.31;72.76;98195.91;4990600;28;97511;-75
2023/03/09 10:36:57;;;;;;;9.40;7.03;;;;;;;5.33;72.47;98198.47;5010427;28;97298;-75
2023/03/09 10:39:23;;;;;;;10.00;7.60;;;;;;;5.38;72.83;98206.88;5021512;27;102981;-75
2023/03/09 10:41:49;;;;;;;14.60;7.73;;;;;;;5.36;72.65;98201.75;5008913;28;97580;-75
2023/03/09 10:44:22;;;;;;;8.20;6.77;;;;;;;5.44;72.82;98217.84;5042946;27;97198;-77
2023/03/09 10:47:01;;;;;;;11.00;7.50;;;;;;;5.50;72.60;98237.56;5008591;28;97017;-77
2023/03/09 10:49:27;;;;;;;8.60;6.53;;;;;;;5.42;73.09;98231.84;5002270;28;101430;-76
2023/03/09 10:52:06;;;;;;;9.60;6.83;;;;;;;5.52;73.53;98243.50;5026832;27;98900;-76
2023/03/09 10:54:40;;;;;;;10.97;7.77;;;;;;;5.53;72.47;98250.41;5042989;27;97352;-76
2023/03/09 10:57:21;;;;;;;8.53;6.77;;;;;;;5.50;72.57;98245.34;5008566;28;97540;-76
2023/03/09 11:00:06;;;;;;;9.37;7.27;;;;;;;5.53;72.39;98247.81;5008028;28;101768;-81
2023/03/09 11:02:35;;;;;;;9.67;7.63;;;;;;;5.44;73.12;98243.88;5026992;28;101631;-80
2023/03/09 11:05:19;;;;;;;11.60;8.57;;;;;;;5.52;73.31;98261.72;5028104;28;97159;-82
2023/03/09 11:07:53;;;;;;;10.10;8.40;;;;;;;5.45;73.30;98268.97;5008256;28;96826;-82
2023/03/09 11:10:25;;;;;;;10.63;7.93;;;;;;;5.55;73.29;98273.75;5032799;27;98011;-80
2023/03/09 11:12:50;;;;;;;7.97;6.97;;;;;;;5.50;73.12;98284.41;5043253;27;97946;-82
2023/03/09 11:15:16;;;;;;;10.27;7.90;;;;;;;5.60;73.25;98303.03;5042778;27;97636;-80
2023/03/09 11:17:46;;;;;;;11.73;8.17;;;;;;;5.62;72.96;98293.41;5030814;27;97135;-82
2023/03/09 11:20:12;;;;;;;9.63;7.97;;;;;;;5.64;73.36;98305.44;5030617;27;101305;-81
2023/03/09 11:22:52;;;;;;;13.33;6.63;;;;;;;5.49;73.24;98290.50;5029525;27;98794;-82
2023/03/09 11:25:30;;;;;;;9.20;6.53;;;;;;;5.57;72.79;98327.44;5026820;27;97171;-82
2023/03/09 11:28:03;;;;;;;7.93;6.77;;;;;;;5.56;73.11;98312.75;5028422;28;97605;-82
2023/03/09 11:30:29;;;;;;;7.83;6.93;;;;;;;5.54;73.29;98327.56;5006817;28;101252;-82